Time;durP1;ratioP1;P1;durP2;ratioP2;P2;SDS_P1;SDS_P2;PMS_P1;PMS_P2;Temp;Humidity;BMP_temperature;BMP_pressure;BME280_temperature;BME280_humidity;BME280_pressure;Samples;Min_cycle;Max_cycle;Signal;HPM_P1;HPM_P2
2021/12/13 18:53:12;;;;;;;11.07;5.65;;;;;;;;;;5103406;27;20135;-69
2021/12/13 18:55:40;;;;;;;13.63;6.25;;;;;;;;;;5104626;28;20023;-69
2021/12/13 18:58:09;;;;;;;8.15;5.28;;;;;;;;;;5105899;28;20376;-70
2021/12/13 19:00:46;;;;;;;8.95;5.57;;;;;;;;;;5106738;28;20107;-69
2021/12/13 19:03:21;;;;;;;8.75;5.00;;;;;;;;;;5113411;28;20027;-68
2021/12/13 19:05:47;;;;;;;12.45;5.55;;;;;;;;;;5106479;28;20504;-68
2021/12/13 19:08:24;;;;;;;9.75;4.95;;;;;;;;;;5109986;28;20048;-68
2021/12/13 19:10:54;;;;;;;10.63;4.65;;;;;;;;;;5112966;28;20020;-68
2021/12/13 19:13:21;;;;;;;11.18;4.93;;;;;;;;;;5106929;28;20029;-68
2021/12/13 19:15:49;;;;;;;8.65;4.40;;;;;;;;;;5118740;28;20123;-68
2021/12/13 19:18:20;;;;;;;12.02;5.80;;;;;;;;;;5119083;28;20027;-67
2021/12/13 19:20:51;;;;;;;12.57;5.72;;;;;;;;;;5120535;28;20023;-68
2021/12/13 19:23:35;;;;;;;11.25;5.32;;;;;;;;;;5106396;28;20024;-67
2021/12/13 19:26:08;;;;;;;12.85;5.97;;;;;;;;;;5115319;28;20046;-68
2021/12/13 19:28:42;;;;;;;14.77;7.38;;;;;;;;;;5113214;28;20046;-68
2021/12/13 19:31:21;;;;;;;13.88;7.68;;;;;;;;;;5106841;28;20028;-70
2021/12/13 19:33:50;;;;;;;18.35;9.23;;;;;;;;;;5116581;28;20475;-69
2021/12/13 19:36:19;;;;;;;14.02;6.57;;;;;;;;;;5110068;28;20039;-69
2021/12/13 19:38:48;;;;;;;14.88;6.88;;;;;;;;;;5113615;28;20068;-69
2021/12/13 19:41:17;;;;;;;13.88;7.90;;;;;;;;;;5119197;28;20035;-68
2021/12/13 19:43:43;;;;;;;15.23;6.70;;;;;;;;;;5108391;28;20499;-68
2021/12/13 19:46:10;;;;;;;15.15;6.63;;;;;;;;;;5112209;28;20030;-69
2021/12/13 19:48:36;;;;;;;14.48;7.80;;;;;;;;;;5115138;28;20015;-68
2021/12/13 19:51:14;;;;;;;14.13;7.53;;;;;;;;;;5092854;28;20433;-68
2021/12/13 19:53:48;;;;;;;18.38;8.70;;;;;;;;;;5087658;28;20142;-68
2021/12/13 19:56:17;;;;;;;17.52;7.38;;;;;;;;;;5101477;28;20024;-68
2021/12/13 19:58:48;;;;;;;14.75;7.68;;;;;;;;;;5114484;28;20023;-68
2021/12/13 20:01:13;;;;;;;;;;;;;;;;;;5095107;28;20031;-68
2021/12/13 20:03:48;;;;;;;13.43;6.00;;;;;;;;;;5102894;28;19958;-68
2021/12/13 20:06:16;;;;;;;14.02;5.80;;;;;;;;;;5100215;28;20020;-68
2021/12/13 20:08:55;;;;;;;14.73;6.13;;;;;;;;;;5100013;28;20028;-68
2021/12/13 20:11:27;;;;;;;13.23;5.85;;;;;;;;;;5097746;28;20067;-68
2021/12/13 20:14:02;;;;;;;15.75;6.53;;;;;;;;;;5102036;28;20023;-68
2021/12/13 20:16:51;;;;;;;12.65;6.32;;;;;;;;;;5095773;28;20028;-69
2021/12/13 20:19:23;;;;;;;10.25;5.75;;;;;;;;;;5083656;28;20035;-69
2021/12/13 20:21:52;;;;;;;12.65;6.30;;;;;;;;;;5101251;28;20019;-68
2021/12/13 20:24:20;;;;;;;13.98;7.72;;;;;;;;;;5099073;28;20019;-68
2021/12/13 20:26:49;;;;;;;14.77;8.73;;;;;;;;;;5098759;28;20027;-69
2021/12/13 20:29:18;;;;;;;13.57;7.05;;;;;;;;;;5101425;28;20077;-68
2021/12/13 20:31:51;;;;;;;12.38;7.07;;;;;;;;;;5097998;28;20418;-68
2021/12/13 20:34:22;;;;;;;14.90;6.80;;;;;;;;;;5097995;28;20020;-68
2021/12/13 20:36:58;;;;;;;12.27;6.95;;;;;;;;;;5098780;28;20024;-68
2021/12/13 20:39:35;;;;;;;11.48;6.57;;;;;;;;;;5093756;28;20027;-68
2021/12/13 20:42:04;;;;;;;12.68;7.25;;;;;;;;;;5094406;28;20055;-68
2021/12/13 20:44:36;;;;;;;13.15;6.68;;;;;;;;;;5102498;28;20016;-68
2021/12/13 20:47:22;;;;;;;14.52;7.55;;;;;;;;;;5102635;28;20088;-68
2021/12/13 20:49:51;;;;;;;14.32;6.60;;;;;;;;;;5096449;28;20342;-68
2021/12/13 20:52:22;;;;;;;32.83;12.23;;;;;;;;;;5096992;28;20130;-68
2021/12/13 20:54:57;;;;;;;39.33;13.98;;;;;;;;;;5099996;28;20020;-68
2021/12/13 20:57:27;;;;;;;37.38;14.63;;;;;;;;;;5093267;28;20035;-68
2021/12/13 20:59:55;;;;;;;37.15;17.55;;;;;;;;;;5098361;28;20028;-68
2021/12/13 21:02:28;;;;;;;27.25;12.98;;;;;;;;;;5104320;28;20032;-68
2021/12/13 21:04:56;;;;;;;19.00;10.70;;;;;;;;;;5103290;28;20047;-68
2021/12/13 21:07:43;;;;;;;20.55;10.13;;;;;;;;;;5095629;28;20110;-68
2021/12/13 21:10:18;;;;;;;17.23;8.90;;;;;;;;;;5098380;28;20051;-68
2021/12/13 21:12:46;;;;;;;13.35;8.02;;;;;;;;;;5098891;28;20032;-68
2021/12/13 21:15:17;;;;;;;16.52;7.72;;;;;;;;;;5095346;28;20028;-68
2021/12/13 21:17:46;;;;;;;15.65;7.90;;;;;;;;;;5099073;28;20044;-68
2021/12/13 21:20:14;;;;;;;13.25;6.95;;;;;;;;;;5103792;28;20028;-68
2021/12/13 21:22:43;;;;;;;14.85;8.45;;;;;;;;;;5098193;28;20028;-68
2021/12/13 21:25:12;;;;;;;15.50;7.57;;;;;;;;;;5091034;28;20051;-68
2021/12/13 21:27:41;;;;;;;15.43;9.05;;;;;;;;;;5082624;28;20483;-68
2021/12/13 21:30:16;;;;;;;12.90;7.68;;;;;;;;;;5093731;28;20072;-67
2021/12/13 21:32:43;;;;;;;16.30;7.95;;;;;;;;;;5098802;28;20028;-68
2021/12/13 21:35:27;;;;;;;15.23;7.68;;;;;;;;;;5100891;28;20112;-68
2021/12/13 21:40:47;;;;;;;14.00;7.00;;;;;;;;;;5102951;28;20073;-67
2021/12/13 21:43:14;;;;;;;15.63;7.90;;;;;;;;;;5105075;28;20035;-67
2021/12/13 21:45:43;;;;;;;18.83;7.40;;;;;;;;;;5101070;28;20576;-67
2021/12/13 21:48:14;;;;;;;15.57;7.53;;;;;;;;;;5090161;28;20047;-67
2021/12/13 21:50:45;;;;;;;14.32;7.68;;;;;;;;;;5066838;28;20032;-67
2021/12/13 21:53:11;;;;;;;;;;;;;;;;;;5094935;28;20028;-68
2021/12/13 21:55:45;;;;;;;13.60;7.00;;;;;;;;;;5093653;28;19970;-67
2021/12/13 21:58:17;;;;;;;20.70;7.75;;;;;;;;;;5099419;28;20048;-67
2021/12/13 22:00:58;;;;;;;16.67;8.68;;;;;;;;;;5096715;28;20098;-68
2021/12/13 22:03:26;;;;;;;17.73;9.80;;;;;;;;;;5094554;28;20027;-67
2021/12/13 22:05:54;;;;;;;15.55;10.05;;;;;;;;;;5077374;28;20391;-67
2021/12/13 22:08:22;;;;;;;20.75;10.85;;;;;;;;;;5105507;28;20451;-67
2021/12/13 22:10:52;;;;;;;19.15;11.38;;;;;;;;;;5097923;28;20031;-67
2021/12/13 22:13:20;;;;;;;19.27;10.17;;;;;;;;;;5099026;28;20024;-67
2021/12/13 22:15:50;;;;;;;17.08;9.93;;;;;;;;;;5097112;28;20496;-67
2021/12/13 22:18:21;;;;;;;18.40;9.82;;;;;;;;;;5099464;28;20390;-68
2021/12/13 22:20:53;;;;;;;18.70;9.52;;;;;;;;;;5056074;28;20045;-68
2021/12/13 22:23:21;;;;;;;14.20;8.50;;;;;;;;;;5105147;28;20047;-67
2021/12/13 22:25:49;;;;;;;16.73;8.77;;;;;;;;;;5102777;28;20111;-67
2021/12/13 22:28:17;;;;;;;18.83;9.18;;;;;;;;;;5086810;28;20112;-67
2021/12/13 22:30:46;;;;;;;17.38;9.10;;;;;;;;;;5097213;28;20032;-67
2021/12/13 22:33:14;;;;;;;23.00;13.00;;;;;;;;;;5103366;28;20032;-67
2021/12/13 22:35:41;;;;;;;26.10;15.18;;;;;;;;;;5081557;28;20027;-67
2021/12/13 22:38:12;;;;;;;25.60;14.07;;;;;;;;;;5102615;28;20490;-67
2021/12/13 22:40:40;;;;;;;23.38;13.45;;;;;;;;;;5087329;28;20073;-67
2021/12/13 22:43:09;;;;;;;19.25;11.13;;;;;;;;;;5095325;28;20055;-66
2021/12/13 22:45:37;;;;;;;18.77;10.90;;;;;;;;;;5091176;28;20023;-67
2021/12/13 22:48:05;;;;;;;17.05;9.70;;;;;;;;;;5093325;28;20020;-66
2021/12/13 22:50:33;;;;;;;16.30;9.95;;;;;;;;;;5102491;28;20047;-67
2021/12/13 22:53:00;;;;;;;20.50;9.00;;;;;;;;;;5106785;28;20088;-67
2021/12/13 22:55:33;;;;;;;17.45;9.20;;;;;;;;;;5098482;28;20035;-66
2021/12/13 22:58:01;;;;;;;18.05;10.13;;;;;;;;;;5095011;28;20364;-67
2021/12/13 23:00:42;;;;;;;20.20;11.20;;;;;;;;;;5092694;28;20027;-66
2021/12/13 23:03:10;;;;;;;17.83;10.90;;;;;;;;;;5073040;28;20442;-66
2021/12/13 23:05:36;;;;;;;20.60;12.07;;;;;;;;;;5094175;28;20083;-68
2021/12/13 23:08:03;;;;;;;22.48;11.65;;;;;;;;;;5100412;28;20024;-67
